IBE2KL LEMD-GMTT
Flight info
| Callsign | IBE2KL |
|---|---|
| Flight time | N/A |
| Altitude | 33000 |
| Route | VTB N10 CRISA/N0452F350 N10 VJF/N0351F130 N10 LINTO DCT NOLRO |
| Aircraft | A320/M-SDE3FGHIRWY/LB1 |
Departure
| Time | 2026-05-05 17:32 |
|---|---|
| Airport | Adolfo Suárez Madrid–Barajas Airport (LEMD) |
Arrival
| Time | N/A |
|---|---|
| Airport | Tangier Ibn Battuta Airport (GMTT) |
| Time | Latitude | Longitude | Altitude | Speed | Heading |
|---|---|---|---|---|---|
| 2026-05-05 17:11 | 40.49469 | -3.56848 | 1978 ft | 0 kts | 90° |
| 2026-05-05 17:22 | 40.49469 | -3.56862 | 1979 ft | 2 kts | 93° |
| 2026-05-05 17:22 | 40.49470 | -3.56878 | 1981 ft | 1 kts | 94° |
| 2026-05-05 17:22 | 40.49470 | -3.56894 | 1985 ft | 2 kts | 94° |
| 2026-05-05 17:22 | 40.49472 | -3.56910 | 1986 ft | 2 kts | 96° |
| 2026-05-05 17:23 | 40.49473 | -3.56925 | 1987 ft | 2 kts | 99° |
| 2026-05-05 17:23 | 40.49475 | -3.56941 | 1988 ft | 2 kts | 103° |
| 2026-05-05 17:23 | 40.49478 | -3.56957 | 1988 ft | 2 kts | 108° |
| 2026-05-05 17:23 | 40.49482 | -3.56972 | 1989 ft | 1 kts | 115° |
| 2026-05-05 17:24 | 40.49488 | -3.56986 | 1989 ft | 2 kts | 126° |
| 2026-05-05 17:24 | 40.49496 | -3.56998 | 1990 ft | 1 kts | 145° |
| 2026-05-05 17:24 | 40.49506 | -3.57006 | 1989 ft | 2 kts | 168° |
| 2026-05-05 17:24 | 40.49515 | -3.57008 | 1989 ft | 0 kts | 180° |
| 2026-05-05 17:25 | 40.49517 | -3.57008 | 1990 ft | 0 kts | 181° |
| 2026-05-05 17:25 | 40.49516 | -3.57008 | 1988 ft | 0 kts | 181° |
| 2026-05-05 17:28 | 40.49501 | -3.57008 | 1987 ft | 8 kts | 181° |
| 2026-05-05 17:28 | 40.49443 | -3.57008 | 1985 ft | 8 kts | 180° |
| 2026-05-05 17:28 | 40.49397 | -3.57009 | 1985 ft | 6 kts | 181° |
| 2026-05-05 17:28 | 40.49362 | -3.57010 | 1986 ft | 4 kts | 181° |
| 2026-05-05 17:29 | 40.49321 | -3.57023 | 1986 ft | 11 kts | 211° |
| 2026-05-05 17:29 | 40.49291 | -3.57126 | 1990 ft | 12 kts | 268° |
| 2026-05-05 17:29 | 40.49277 | -3.57217 | 1990 ft | 8 kts | 230° |
| 2026-05-05 17:29 | 40.49219 | -3.57240 | 1992 ft | 9 kts | 190° |
| 2026-05-05 17:30 | 40.49181 | -3.57291 | 1993 ft | 8 kts | 244° |
| 2026-05-05 17:30 | 40.49180 | -3.57367 | 1994 ft | 9 kts | 279° |
| 2026-05-05 17:30 | 40.49198 | -3.57447 | 1993 ft | 9 kts | 309° |
| 2026-05-05 17:30 | 40.49241 | -3.57461 | 1995 ft | 0 kts | 358° |
| 2026-05-05 17:31 | 40.49318 | -3.57466 | 1995 ft | 42 kts | 356° |
| 2026-05-05 17:31 | 40.49877 | -3.57472 | 1995 ft | 115 kts | 0° |
| 2026-05-05 17:31 | 40.50864 | -3.57503 | 2002 ft | 168 kts | 356° |
| 2026-05-05 17:32 | 40.52083 | -3.57493 | 2491 ft | 179 kts | 354° |
| 2026-05-05 17:32 | 40.53354 | -3.57554 | 3200 ft | 183 kts | 355° |
| 2026-05-05 17:32 | 40.54626 | -3.57578 | 3861 ft | 186 kts | 354° |
| 2026-05-05 17:32 | 40.55868 | -3.58126 | 4202 ft | 197 kts | 316° |
| 2026-05-05 17:33 | 40.56525 | -3.59705 | 4736 ft | 202 kts | 285° |
| 2026-05-05 17:33 | 40.56515 | -3.61560 | 5312 ft | 213 kts | 256° |
| 2026-05-05 17:33 | 40.55624 | -3.63240 | 5687 ft | 245 kts | 218° |
| 2026-05-05 17:33 | 40.53912 | -3.63951 | 6192 ft | 276 kts | 180° |
| 2026-05-05 17:34 | 40.52043 | -3.63207 | 6999 ft | 291 kts | 150° |
| 2026-05-05 17:34 | 40.50449 | -3.61530 | 7942 ft | 296 kts | 136° |
| 2026-05-05 17:34 | 40.49050 | -3.59528 | 8929 ft | 298 kts | 132° |
| 2026-05-05 17:34 | 40.47653 | -3.57499 | 9874 ft | 301 kts | 139° |
| 2026-05-05 17:35 | 40.45935 | -3.55948 | 10695 ft | 301 kts | 158° |
| 2026-05-05 17:35 | 40.43912 | -3.55199 | 11042 ft | 309 kts | 175° |
| 2026-05-05 17:35 | 40.41669 | -3.54899 | 11100 ft | 337 kts | 177° |
| 2026-05-05 17:35 | 40.39291 | -3.54622 | 11158 ft | 347 kts | 178° |
| 2026-05-05 17:36 | 40.36878 | -3.54340 | 11174 ft | 350 kts | 177° |
| 2026-05-05 17:36 | 40.34428 | -3.54038 | 11492 ft | 357 kts | 177° |
| 2026-05-05 17:36 | 40.31959 | -3.53717 | 12468 ft | 357 kts | 176° |
| 2026-05-05 17:36 | 40.29479 | -3.53384 | 13332 ft | 360 kts | 176° |
| 2026-05-05 17:37 | 40.26974 | -3.53042 | 14093 ft | 364 kts | 176° |
| 2026-05-05 17:37 | 40.25263 | -3.52807 | 14563 ft | 367 kts | 176° |
| 2026-05-05 17:37 | 40.21875 | -3.52340 | 15492 ft | 373 kts | 177° |
| 2026-05-05 17:37 | 40.19277 | -3.51984 | 16167 ft | 377 kts | 177° |
| 2026-05-05 17:38 | 40.16654 | -3.51626 | 16832 ft | 382 kts | 177° |
| 2026-05-05 17:38 | 40.13995 | -3.51265 | 17489 ft | 386 kts | 178° |
| 2026-05-05 17:38 | 40.11308 | -3.50903 | 18142 ft | 391 kts | 178° |
| 2026-05-05 17:38 | 40.08580 | -3.50535 | 18722 ft | 395 kts | 179° |
| 2026-05-05 17:39 | 40.05829 | -3.50161 | 19282 ft | 400 kts | 179° |